Time;durP1;ratioP1;P1;durP2;ratioP2;P2;SDS_P1;SDS_P2;PMS_P1;PMS_P2;Temp;Humidity;BMP_temperature;BMP_pressure;BME280_temperature;BME280_humidity;BME280_pressure;Samples;Min_cycle;Max_cycle;Signal;HPM_P1;HPM_P2
2022/05/07 00:02:18;;;;;;;32.10;13.50;;;12.20;99.90;;;;;;4976310;28;20204;-72
2022/05/07 00:04:45;;;;;;;25.97;13.63;;;12.20;99.90;;;;;;4993498;28;20204;-72
2022/05/07 00:07:13;;;;;;;23.03;13.13;;;12.30;99.90;;;;;;4976356;28;20299;-74
2022/05/07 00:09:40;;;;;;;27.43;13.73;;;12.10;99.90;;;;;;4993726;28;20201;-72
2022/05/07 00:12:08;;;;;;;22.13;13.07;;;12.10;99.90;;;;;;4975933;28;20227;-71
2022/05/07 00:14:34;;;;;;;21.73;14.40;;;12.20;99.90;;;;;;4992028;28;20316;-72
2022/05/07 00:19:47;;;;;;;24.50;14.17;;;12.20;99.90;;;;;;4993266;28;20214;-73
2022/05/07 00:22:15;;;;;;;27.97;13.70;;;12.30;99.90;;;;;;4992132;28;20232;-72
2022/05/07 00:24:42;;;;;;;24.90;13.93;;;12.20;99.90;;;;;;4975769;28;20300;-72
2022/05/07 00:27:09;;;;;;;24.30;14.57;;;12.20;99.90;;;;;;4975877;28;20201;-74
2022/05/07 00:29:36;;;;;;;24.10;14.50;;;12.30;99.90;;;;;;4992924;28;20279;-74
2022/05/07 00:32:04;;;;;;;24.83;14.83;;;12.20;99.90;;;;;;4992043;28;20291;-74
2022/05/07 00:34:31;;;;;;;23.50;14.57;;;12.00;99.90;;;;;;4975422;28;20236;-73
2022/05/07 00:36:58;;;;;;;23.93;14.47;;;11.90;99.90;;;;;;4975526;28;20200;-73
2022/05/07 00:39:25;;;;;;;25.53;13.80;;;11.90;99.90;;;;;;4993225;28;20216;-73
2022/05/07 00:41:53;;;;;;;22.50;14.40;;;11.90;99.90;;;;;;4993426;28;20576;-74
2022/05/07 00:44:21;;;;;;;22.23;13.90;;;11.90;99.90;;;;;;4992928;28;20556;-72
2022/05/07 00:46:49;;;;;;;25.70;14.70;;;11.70;99.90;;;;;;4991619;28;20559;-72
2022/05/07 00:49:17;;;;;;;25.53;15.27;;;11.80;99.90;;;;;;4991809;28;20200;-74
2022/05/07 00:51:45;;;;;;;22.47;14.40;;;11.70;99.90;;;;;;4991496;28;20228;-73
2022/05/07 00:54:12;;;;;;;28.57;15.53;;;11.70;99.90;;;;;;4991924;28;20317;-72
2022/05/07 00:56:39;;;;;;;25.70;14.87;;;11.70;99.90;;;;;;4975232;28;20205;-73
2022/05/07 00:59:06;;;;;;;25.17;15.63;;;11.60;99.90;;;;;;4991452;28;20204;-72
2022/05/07 01:01:33;;;;;;;25.70;15.83;;;11.50;99.90;;;;;;4992749;28;20271;-72
2022/05/07 01:04:00;;;;;;;30.13;16.00;;;11.60;99.90;;;;;;4978378;28;20197;-73
2022/05/07 01:06:28;;;;;;;27.67;16.30;;;11.60;99.90;;;;;;4995555;28;20688;-72
2022/05/07 01:08:55;;;;;;;27.03;15.90;;;11.60;99.90;;;;;;4996817;28;20232;-70
2022/05/07 01:11:22;;;;;;;28.07;16.23;;;11.50;99.90;;;;;;4996893;28;20246;-71
2022/05/07 01:13:49;;;;;;;27.10;14.87;;;11.50;99.90;;;;;;4995138;28;20251;-71
2022/05/07 01:16:16;;;;;;;30.20;16.67;;;11.40;99.90;;;;;;4996485;28;20193;-72
2022/05/07 01:18:43;;;;;;;23.60;15.57;;;11.40;99.90;;;;;;4994750;28;20255;-71
2022/05/07 01:21:17;;;;;;;30.47;16.53;;;11.40;99.90;;;;;;4995262;28;20295;-70
2022/05/07 01:23:47;;;;;;;27.67;15.73;;;11.40;99.90;;;;;;4996501;28;20220;-71
2022/05/07 01:26:17;;;;;;;28.73;15.90;;;11.40;99.90;;;;;;4978712;28;20546;-70
2022/05/07 01:28:44;;;;;;;28.37;15.73;;;11.40;99.90;;;;;;4995142;28;20203;-71
2022/05/07 01:31:11;;;;;;;26.77;16.07;;;11.40;99.90;;;;;;4995940;28;20616;-70
2022/05/07 01:33:39;;;;;;;29.23;16.43;;;11.30;99.90;;;;;;4979171;28;20205;-71
2022/05/07 01:36:16;;;;;;;32.03;16.87;;;11.30;99.90;;;;;;4996143;28;20263;-69
2022/05/07 01:38:43;;;;;;;28.27;16.37;;;11.30;99.90;;;;;;4978663;28;20639;-70
2022/05/07 01:41:10;;;;;;;28.87;16.77;;;11.20;99.90;;;;;;4978631;28;20232;-70
2022/05/07 01:43:37;;;;;;;29.53;16.50;;;11.20;99.90;;;;;;4978849;28;20577;-70
2022/05/07 01:48:09;;;;;;;26.13;16.00;;;11.10;99.90;;;;;;4995030;28;20239;-70
2022/05/07 01:48:51;;;;;;;27.67;16.37;;;11.10;99.90;;;;;;4978814;28;20201;-70
2022/05/07 01:51:18;;;;;;;26.60;16.13;;;11.00;99.90;;;;;;4995851;28;21110;-70
2022/05/07 01:53:45;;;;;;;25.00;15.37;;;10.90;99.90;;;;;;4995890;28;20216;-70
2022/05/07 01:56:13;;;;;;;28.93;15.97;;;10.90;99.90;;;;;;4978155;28;20231;-69
2022/05/07 01:58:39;;;;;;;27.97;16.60;;;11.00;99.90;;;;;;4978634;28;20213;-69
2022/05/07 02:01:09;;;;;;;29.10;16.57;;;10.90;99.90;;;;;;4977885;28;20267;-70
2022/05/07 02:03:38;;;;;;;27.83;16.43;;;10.90;99.90;;;;;;4994545;28;20197;-70
2022/05/07 02:06:05;;;;;;;28.83;16.43;;;10.80;99.90;;;;;;4978231;28;20283;-70
2022/05/07 02:08:32;;;;;;;29.60;16.37;;;10.70;99.90;;;;;;4994340;28;20296;-70
2022/05/07 02:11:00;;;;;;;28.00;16.73;;;10.70;99.90;;;;;;4994656;28;20611;-69
2022/05/07 02:13:28;;;;;;;27.53;16.70;;;10.60;99.90;;;;;;4977938;28;20243;-70
2022/05/07 02:15:55;;;;;;;30.07;16.13;;;10.50;99.90;;;;;;4995458;28;20221;-70
2022/05/07 02:18:22;;;;;;;26.87;16.07;;;10.50;99.90;;;;;;4977960;28;20196;-70
2022/05/07 02:20:50;;;;;;;28.43;15.90;;;10.60;99.90;;;;;;4994332;28;20632;-71
2022/05/07 02:23:18;;;;;;;28.13;16.33;;;10.60;99.90;;;;;;4993940;28;20193;-69
2022/05/07 02:25:44;;;;;;;27.40;16.37;;;10.50;99.90;;;;;;4977504;28;20235;-70
2022/05/07 02:28:11;;;;;;;26.63;16.87;;;10.50;99.90;;;;;;4994202;28;20530;-70
2022/05/07 02:30:38;;;;;;;31.47;17.70;;;10.50;99.90;;;;;;4977538;28;20231;-71
2022/05/07 02:33:05;;;;;;;29.47;17.67;;;10.40;99.90;;;;;;4994054;28;20303;-70
2022/05/07 02:35:32;;;;;;;27.93;16.53;;;10.30;99.90;;;;;;4993853;28;20248;-70
2022/05/07 02:37:59;;;;;;;28.83;16.80;;;10.50;99.90;;;;;;4995245;28;20220;-70
2022/05/07 02:40:26;;;;;;;27.87;17.20;;;10.50;99.90;;;;;;4993637;28;20304;-71
2022/05/07 02:42:53;;;;;;;29.40;17.60;;;10.40;99.90;;;;;;4993913;28;20292;-70
2022/05/07 02:45:20;;;;;;;29.83;18.33;;;10.40;99.90;;;;;;4977111;28;20299;-71
2022/05/07 02:47:47;;;;;;;29.67;17.97;;;10.40;99.90;;;;;;4977335;28;20562;-71
2022/05/07 02:50:14;;;;;;;29.93;18.27;;;10.40;99.90;;;;;;4993611;28;20301;-71
2022/05/07 02:52:41;;;;;;;29.23;18.13;;;10.40;99.90;;;;;;4977204;28;20204;-70
2022/05/07 02:55:09;;;;;;;28.27;17.90;;;10.30;99.90;;;;;;4993710;28;20252;-69
2022/05/07 02:57:36;;;;;;;33.60;18.33;;;10.20;99.90;;;;;;4994728;28;20239;-70
2022/05/07 03:00:04;;;;;;;34.17;18.60;;;10.20;99.90;;;;;;4994591;28;20244;-71
2022/05/07 03:02:31;;;;;;;31.77;18.20;;;10.20;99.90;;;;;;4977380;28;20193;-71
2022/05/07 03:04:58;;;;;;;33.17;17.77;;;10.30;99.90;;;;;;4961271;28;20201;-71
2022/05/07 03:07:25;;;;;;;30.00;18.40;;;10.30;99.90;;;;;;4994442;28;20197;-71
2022/05/07 03:09:52;;;;;;;31.77;18.27;;;10.40;99.90;;;;;;4976926;28;20201;-71
2022/05/07 03:12:19;;;;;;;30.50;17.90;;;10.30;99.90;;;;;;4993487;28;20201;-69
2022/05/07 03:14:46;;;;;;;31.73;18.67;;;10.30;99.90;;;;;;4994067;28;20201;-68
2022/05/07 03:17:13;;;;;;;29.23;17.53;;;10.20;99.90;;;;;;4993151;28;20211;-68
2022/05/07 03:19:40;;;;;;;29.23;17.40;;;10.20;99.90;;;;;;4976737;28;20204;-67
2022/05/07 03:22:07;;;;;;;29.17;17.23;;;10.20;99.90;;;;;;4976932;28;20204;-68
2022/05/07 03:24:37;;;;;;;32.47;18.07;;;10.20;99.90;;;;;;4992796;28;20737;-68
2022/05/07 03:27:05;;;;;;;29.77;17.83;;;10.20;99.90;;;;;;4993800;28;20685;-69
2022/05/07 03:29:32;;;;;;;31.53;17.80;;;10.30;99.90;;;;;;4976913;28;20284;-70
2022/05/07 03:31:59;;;;;;;32.47;17.73;;;10.20;99.90;;;;;;4993965;28;20284;-74
2022/05/07 03:34:26;;;;;;;30.20;17.77;;;10.30;99.90;;;;;;4992772;28;20223;-71
2022/05/07 03:36:52;;;;;;;31.53;18.13;;;10.40;99.90;;;;;;4976280;28;20630;-69
2022/05/07 03:39:19;;;;;;;35.37;18.50;;;10.40;99.90;;;;;;4976714;28;20201;-70
2022/05/07 03:41:46;;;;;;;30.03;16.90;;;10.40;99.90;;;;;;4976490;28;20296;-74
2022/05/07 03:44:13;;;;;;;30.13;18.10;;;10.40;99.90;;;;;;4976701;28;20201;-72
2022/05/07 03:46:40;;;;;;;29.00;17.03;;;10.50;99.90;;;;;;4992323;28;20201;-71
2022/05/07 03:49:07;;;;;;;28.90;17.30;;;10.50;99.90;;;;;;4992567;28;20667;-69
2022/05/07 03:53:29;;;;;;;26.60;18.00;;;10.60;99.90;;;;;;4976804;28;20211;-71
2022/05/07 03:54:20;;;;;;;28.87;17.73;;;10.60;99.90;;;;;;4976151;28;20556;-73
2022/05/07 03:56:47;;;;;;;29.27;16.93;;;10.70;99.90;;;;;;4993599;28;20720;-73
2022/05/07 03:59:14;;;;;;;30.50;16.83;;;10.70;99.90;;;;;;4992046;28;20851;-72
2022/05/07 04:01:41;;;;;;;31.33;17.40;;;10.70;99.90;;;;;;4975844;28;20774;-70
2022/05/07 04:04:08;;;;;;;31.37;17.40;;;10.70;99.90;;;;;;4976104;28;20259;-68
2022/05/07 04:07:39;;;;;;;30.53;18.13;;;10.70;99.90;;;;;;5070313;28;20550;-72
2022/05/07 04:10:07;;;;;;;28.77;17.10;;;10.80;99.90;;;;;;5068559;28;20283;-70
2022/05/07 04:12:33;;;;;;;31.63;17.47;;;10.70;99.90;;;;;;5069864;28;20194;-73
2022/05/07 04:15:01;;;;;;;30.73;17.03;;;10.80;99.90;;;;;;5068291;28;20284;-73
2022/05/07 04:17:28;;;;;;;31.13;18.10;;;10.80;99.90;;;;;;5068153;28;20202;-71
2022/05/07 04:19:55;;;;;;;30.73;17.07;;;10.80;99.90;;;;;;5068518;28;20717;-69
2022/05/07 04:22:22;;;;;;;27.50;17.50;;;10.90;99.90;;;;;;5068348;28;20220;-68
2022/05/07 04:24:49;;;;;;;26.97;17.10;;;10.90;99.90;;;;;;5102122;28;20194;-69
2022/05/07 04:27:16;;;;;;;32.00;17.80;;;10.90;99.90;;;;;;5067901;28;20236;-69
2022/05/07 04:29:43;;;;;;;29.23;17.67;;;10.90;99.90;;;;;;5102104;28;20288;-69
2022/05/07 04:32:10;;;;;;;32.13;18.17;;;10.90;99.90;;;;;;5068048;28;20202;-68
2022/05/07 04:34:37;;;;;;;30.13;17.90;;;10.90;99.90;;;;;;5068120;28;20297;-69
2022/05/07 04:37:03;;;;;;;30.93;17.57;;;10.90;99.90;;;;;;5068060;28;20201;-69
2022/05/07 04:39:33;;;;;;;30.47;18.03;;;11.00;99.90;;;;;;5067914;28;20747;-69
2022/05/07 04:42:02;;;;;;;29.27;17.77;;;11.10;99.90;;;;;;5067931;28;20289;-69
2022/05/07 04:44:29;;;;;;;32.17;18.07;;;11.20;99.90;;;;;;5067551;28;20234;-69
2022/05/07 04:46:56;;;;;;;28.50;17.70;;;11.20;99.90;;;;;;5067838;28;20214;-69
2022/05/07 04:49:23;;;;;;;45.67;20.83;;;11.20;99.90;;;;;;5067661;28;20719;-70
2022/05/07 04:51:53;;;;;;;28.43;17.90;;;11.40;99.90;;;;;;5067931;28;20198;-69
2022/05/07 04:54:20;;;;;;;28.97;17.57;;;11.50;99.90;;;;;;5051050;28;20201;-69
2022/05/07 04:56:48;;;;;;;28.30;17.43;;;11.60;99.90;;;;;;5068894;28;20206;-69
2022/05/07 04:59:17;;;;;;;31.93;17.77;;;11.70;99.90;;;;;;5068965;28;20199;-69
2022/05/07 05:01:44;;;;;;;29.53;17.73;;;11.70;99.90;;;;;;5081087;28;20221;-70
2022/05/07 05:04:11;;;;;;;30.53;18.30;;;11.70;99.90;;;;;;5047603;28;20222;-69
2022/05/07 05:06:38;;;;;;;30.60;17.80;;;11.80;99.90;;;;;;5030511;28;20245;-70
2022/05/07 05:09:06;;;;;;;30.70;17.23;;;11.90;99.90;;;;;;5047730;28;20700;-69
2022/05/07 05:11:34;;;;;;;27.77;17.13;;;12.00;99.90;;;;;;5047612;28;20590;-68
2022/05/07 05:14:01;;;;;;;29.93;16.70;;;12.10;99.90;;;;;;5081180;28;20663;-69
2022/05/07 05:16:28;;;;;;;28.80;18.27;;;12.10;99.90;;;;;;5080509;28;20294;-68
2022/05/07 05:18:56;;;;;;;27.87;16.80;;;12.20;99.90;;;;;;5067703;28;20214;-67
2022/05/07 05:21:22;;;;;;;27.77;17.73;;;12.30;99.90;;;;;;5034164;28;20230;-68
2022/05/07 05:23:49;;;;;;;27.00;16.77;;;12.40;99.90;;;;;;5067116;28;20210;-67
2022/05/07 05:26:16;;;;;;;28.30;16.63;;;12.50;99.90;;;;;;5035064;28;20565;-68
2022/05/07 05:28:45;;;;;;;24.70;16.47;;;12.50;99.90;;;;;;5067067;28;20223;-69
2022/05/07 05:31:12;;;;;;;27.00;16.60;;;12.60;99.90;;;;;;5034099;28;20294;-69
2022/05/07 05:33:39;;;;;;;27.93;17.13;;;12.70;99.90;;;;;;5034038;28;20199;-69
2022/05/07 05:36:06;;;;;;;24.80;15.90;;;12.70;99.90;;;;;;5067181;28;20206;-69
2022/05/07 05:38:33;;;;;;;25.60;16.23;;;12.80;99.90;;;;;;5033629;28;20202;-71
2022/05/07 05:41:00;;;;;;;28.43;16.23;;;12.90;99.90;;;;;;5066686;28;20209;-71
2022/05/07 05:43:27;;;;;;;27.20;16.53;;;13.00;99.90;;;;;;5067288;28;20226;-70
2022/05/07 05:45:54;;;;;;;28.03;15.67;;;13.10;99.90;;;;;;5016532;28;20261;-70
2022/05/07 05:48:20;;;;;;;31.00;15.97;;;13.20;99.90;;;;;;5067015;28;20196;-74
2022/05/07 05:50:47;;;;;;;28.03;15.13;;;13.30;99.90;;;;;;5066687;28;20209;-75
2022/05/07 05:53:14;;;;;;;23.23;14.73;;;13.40;99.90;;;;;;5033620;28;20296;-72
2022/05/07 05:55:41;;;;;;;24.50;14.70;;;13.50;99.90;;;;;;5033039;28;20200;-69
2022/05/07 05:58:08;;;;;;;23.07;13.87;;;13.60;99.90;;;;;;5033674;28;20227;-68
2022/05/07 06:00:35;;;;;;;22.83;13.70;;;13.70;99.90;;;;;;5033053;28;20652;-68
2022/05/07 06:03:01;;;;;;;24.13;14.37;;;13.80;99.90;;;;;;5033029;28;20289;-69
2022/05/07 06:05:28;;;;;;;28.23;15.20;;;13.90;99.90;;;;;;5032818;28;20326;-70
2022/05/07 06:07:55;;;;;;;25.67;14.90;;;14.00;99.90;;;;;;5034274;28;20216;-70
2022/05/07 06:10:22;;;;;;;29.17;15.27;;;14.00;99.90;;;;;;5016462;28;20203;-72
2022/05/07 06:12:49;;;;;;;24.67;14.57;;;14.00;99.90;;;;;;5066599;28;20212;-74
2022/05/07 06:15:16;;;;;;;23.23;14.10;;;14.10;99.90;;;;;;5033235;28;20199;-73
2022/05/07 06:17:43;;;;;;;25.57;14.23;;;14.20;99.90;;;;;;5066044;28;20206;-68
2022/05/07 06:20:10;;;;;;;24.77;13.83;;;14.30;99.90;;;;;;5066400;28;20208;-68
2022/05/07 06:22:37;;;;;;;21.67;13.27;;;14.50;99.90;;;;;;5032698;28;20741;-69
2022/05/07 06:27:50;;;;;;;23.43;12.10;;;14.60;99.90;;;;;;5034066;28;20270;-72
2022/05/07 06:30:17;;;;;;;20.47;11.50;;;14.80;99.90;;;;;;5031508;28;20192;-71
2022/05/07 06:32:44;;;;;;;21.80;11.87;;;14.80;99.90;;;;;;5033927;28;20235;-67
2022/05/07 06:35:11;;;;;;;21.87;11.30;;;14.90;99.90;;;;;;5065684;28;20209;-71
2022/05/07 06:37:39;;;;;;;17.20;9.43;;;15.00;99.90;;;;;;5033611;28;20261;-72
2022/05/07 06:40:07;;;;;;;15.33;9.20;;;15.00;99.90;;;;;;5032532;28;20667;-73
2022/05/07 06:42:35;;;;;;;14.60;8.03;;;15.10;99.90;;;;;;5032485;28;20667;-70
2022/05/07 06:45:05;;;;;;;16.80;9.23;;;15.20;99.90;;;;;;5032297;28;20196;-71
2022/05/07 06:47:33;;;;;;;16.63;8.27;;;15.20;99.90;;;;;;5065299;28;20672;-72
2022/05/07 06:50:00;;;;;;;16.57;9.30;;;15.40;99.90;;;;;;5032304;28;20293;-69
2022/05/07 06:52:29;;;;;;;20.43;9.27;;;15.30;99.90;;;;;;5033215;28;20549;-71
2022/05/07 06:54:56;;;;;;;17.70;10.10;;;15.40;99.90;;;;;;5031682;28;20218;-72
2022/05/07 06:57:24;;;;;;;19.17;10.90;;;15.50;99.90;;;;;;5032339;28;20298;-69
2022/05/07 06:59:51;;;;;;;16.50;10.03;;;15.60;99.90;;;;;;5031964;28;20669;-69
2022/05/07 07:02:18;;;;;;;14.23;8.90;;;15.70;99.90;;;;;;5032057;28;20195;-69
2022/05/07 07:04:45;;;;;;;13.03;8.30;;;15.80;99.90;;;;;;5031722;28;20195;-70
2022/05/07 07:07:16;;;;;;;13.40;7.60;;;15.80;99.90;;;;;;5031523;28;20231;-71
2022/05/07 07:09:43;;;;;;;15.37;7.73;;;15.80;99.90;;;;;;5031693;28;20196;-72
2022/05/07 07:12:10;;;;;;;12.07;7.23;;;15.80;99.90;;;;;;5032324;28;20221;-70
2022/05/07 07:14:39;;;;;;;9.80;6.00;;;15.90;99.90;;;;;;5031847;28;20196;-69
2022/05/07 07:17:06;;;;;;;11.70;5.97;;;16.00;99.90;;;;;;5031608;28;20253;-70
2022/05/07 07:19:34;;;;;;;13.00;6.90;;;16.00;99.90;;;;;;5031472;28;20602;-70
2022/05/07 07:22:01;;;;;;;11.23;6.90;;;16.10;99.90;;;;;;5031236;28;20290;-70
2022/05/07 07:24:28;;;;;;;10.90;6.20;;;16.30;99.90;;;;;;5031709;28;20293;-70
2022/05/07 07:26:55;;;;;;;8.83;5.80;;;16.40;99.90;;;;;;5064145;28;20222;-70
2022/05/07 07:29:23;;;;;;;8.77;5.97;;;16.40;99.90;;;;;;5031363;28;20215;-70
2022/05/07 07:31:50;;;;;;;11.90;5.87;;;16.50;99.90;;;;;;5030992;28;20207;-70
2022/05/07 07:34:17;;;;;;;12.93;6.00;;;16.60;99.90;;;;;;5031267;28;20200;-70
2022/05/07 07:36:44;;;;;;;9.77;5.57;;;16.70;99.90;;;;;;5064343;28;20200;-71
2022/05/07 07:39:12;;;;;;;9.47;5.30;;;16.80;99.90;;;;;;5030937;28;20724;-69
2022/05/07 07:41:39;;;;;;;8.23;5.47;;;16.80;99.90;;;;;;5031190;28;20298;-71
2022/05/07 07:44:06;;;;;;;9.07;5.17;;;16.80;99.90;;;;;;5032305;28;20205;-72
2022/05/07 07:49:18;;;;;;;9.93;5.07;;;16.80;99.90;;;;;;5064156;28;20674;-71
2022/05/07 07:51:45;;;;;;;9.03;5.20;;;16.80;99.90;;;;;;5064620;28;20282;-71
2022/05/07 07:54:12;;;;;;;7.20;4.53;;;16.90;99.90;;;;;;5031147;28;20378;-71
2022/05/07 07:56:39;;;;;;;6.87;5.07;;;16.90;99.90;;;;;;5064424;28;20199;-71
2022/05/07 07:59:06;;;;;;;8.47;5.17;;;16.90;99.90;;;;;;5031074;28;20234;-72
2022/05/07 08:01:33;;;;;;;7.03;4.47;;;17.00;99.90;;;;;;5063802;28;20314;-77
2022/05/07 08:04:00;;;;;;;6.93;4.73;;;17.10;99.90;;;;;;5030896;28;20555;-70
2022/05/07 08:06:29;;;;;;;7.70;4.57;;;17.10;99.90;;;;;;5030445;28;20251;-75
2022/05/07 08:11:41;;;;;;;7.73;4.57;;;18.00;99.90;;;;;;5064466;28;20644;-75
2022/05/07 08:14:08;;;;;;;8.37;4.30;;;19.00;99.90;;;;;;5030636;28;20634;-70
2022/05/07 08:16:36;;;;;;;6.83;4.37;;;19.60;99.90;;;;;;5032070;28;20191;-71
2022/05/07 08:19:06;;;;;;;8.70;4.30;;;20.60;99.90;;;;;;5032048;28;20270;-69
2022/05/07 08:21:33;;;;;;;9.13;4.73;;;21.80;98.00;;;;;;5030719;28;20208;-70
2022/05/07 08:24:00;;;;;;;6.83;4.47;;;22.10;93.10;;;;;;5063396;28;20223;-69
2022/05/07 08:26:27;;;;;;;8.60;4.40;;;21.40;92.70;;;;;;5063918;28;20246;-70
2022/05/07 08:28:54;;;;;;;7.95;4.15;;;21.90;92.00;;;;;;5030627;28;20294;-70
2022/05/07 08:31:24;;;;;;;5.50;3.97;;;22.30;91.00;;;;;;5030404;28;20199;-70
2022/05/07 08:33:52;;;;;;;5.20;3.97;;;22.30;86.30;;;;;;5030902;28;20207;-70
2022/05/07 08:36:19;;;;;;;7.70;3.50;;;22.90;86.00;;;;;;5030327;28;20294;-70
2022/05/07 08:38:45;;;;;;;4.28;2.88;;;23.40;80.50;;;;;;5031965;28;20703;-71
2022/05/07 08:41:12;;;;;;;3.78;2.60;;;23.80;78.40;;;;;;5030513;28;20292;-71
2022/05/07 08:43:42;;;;;;;5.07;2.53;;;23.80;74.80;;;;;;5030411;28;20199;-71
2022/05/07 08:46:12;;;;;;;5.30;2.20;;;24.20;73.00;;;;;;5063892;28;20200;-72
2022/05/07 08:48:41;;;;;;;4.35;2.30;;;24.20;69.10;;;;;;5030543;28;20234;-69
2022/05/07 08:51:09;;;;;;;6.18;2.75;;;23.80;67.70;;;;;;5030795;28;20282;-71
2022/05/07 08:53:36;;;;;;;3.47;2.50;;;22.90;69.70;;;;;;5033050;28;20203;-70
2022/05/07 08:56:03;;;;;;;5.20;2.70;;;22.50;69.60;;;;;;5034388;28;20235;-71
2022/05/07 08:58:31;;;;;;;5.43;2.10;;;22.50;70.60;;;;;;5034247;28;20203;-69
2022/05/07 09:00:59;;;;;;;4.40;2.05;;;23.00;70.90;;;;;;5034407;28;20234;-69
2022/05/07 09:03:38;;;;;;;3.45;1.95;;;22.80;70.40;;;;;;5035454;28;20191;-75
2022/05/07 09:06:26;;;;;;;3.47;1.55;;;22.60;71.20;;;;;;5067452;28;20231;-70
2022/05/07 09:08:56;;;;;;;2.47;1.00;;;23.30;69.50;;;;;;5067326;28;20210;-70
2022/05/07 09:11:23;;;;;;;2.70;1.35;;;23.30;66.50;;;;;;5035837;28;20687;-69
2022/05/07 09:14:05;;;;;;;3.67;1.33;;;22.80;65.20;;;;;;5033939;28;20378;-70
2022/05/07 09:16:40;;;;;;;1.55;1.10;;;22.60;65.70;;;;;;5034030;28;20206;-70
2022/05/07 09:19:18;;;;;;;1.77;1.20;;;22.20;65.90;;;;;;5067504;28;20203;-72
2022/05/07 09:21:45;;;;;;;1.67;1.37;;;21.90;66.50;;;;;;5034077;28;20196;-70
2022/05/07 09:24:11;;;;;;;2.80;1.23;;;21.50;68.10;;;;;;5033480;28;20653;-75
2022/05/07 09:26:40;;;;;;;2.97;1.20;;;21.60;70.80;;;;;;5034147;28;20286;-72
2022/05/07 09:29:10;;;;;;;3.20;1.30;;;21.90;69.30;;;;;;5067310;28;20641;-71
2022/05/07 09:31:41;;;;;;;2.27;1.40;;;22.20;68.90;;;;;;5033718;28;20261;-72
2022/05/07 09:37:24;;;;;;;1.90;1.40;;;22.40;67.00;;;;;;5034888;28;20286;-73
2022/05/07 09:39:51;;;;;;;1.67;1.27;;;22.50;68.40;;;;;;5017389;28;20216;-72
2022/05/07 09:42:22;;;;;;;1.70;1.20;;;23.40;67.10;;;;;;5033392;28;20230;-74
2022/05/07 09:44:50;;;;;;;1.65;1.23;;;23.60;62.90;;;;;;5035073;28;20199;-72
2022/05/07 09:47:17;;;;;;;2.28;1.60;;;22.90;66.00;;;;;;5033237;28;20223;-74
2022/05/07 09:52:32;;;;;;;1.73;1.30;;;23.60;62.20;;;;;;5067157;28;20198;-73
2022/05/07 09:57:44;;;;;;;1.35;1.17;;;24.90;61.80;;;;;;5067078;28;20200;-76
2022/05/07 10:00:13;;;;;;;2.80;1.40;;;25.20;58.60;;;;;;5066465;28;20233;-78
2022/05/07 10:02:47;;;;;;;1.95;1.30;;;25.80;57.90;;;;;;5034294;28;20187;-76
2022/05/07 10:05:39;;;;;;;2.35;1.48;;;26.00;57.30;;;;;;5032090;28;20195;-79
2022/05/07 10:08:38;;;;;;;1.40;1.20;;;25.30;57.10;;;;;;5034670;28;20259;-78
2022/05/07 10:11:06;;;;;;;2.90;1.33;;;25.10;58.50;;;;;;5033284;28;20208;-70
2022/05/07 10:13:33;;;;;;;2.78;1.30;;;25.20;56.20;;;;;;5033144;28;20622;-70
2022/05/07 10:16:01;;;;;;;3.67;1.20;;;24.50;56.00;;;;;;5032911;28;20286;-72
2022/05/07 10:18:38;;;;;;;2.97;1.63;;;24.80;57.00;;;;;;5032750;28;20833;-69
2022/05/07 10:21:17;;;;;;;2.45;1.20;;;24.30;56.10;;;;;;5034070;28;20229;-70
2022/05/07 10:23:54;;;;;;;1.80;1.20;;;24.10;58.20;;;;;;5033392;28;20245;-70
2022/05/07 10:26:23;;;;;;;2.03;1.05;;;24.80;57.80;;;;;;5065920;28;20223;-69
2022/05/07 10:28:51;;;;;;;2.40;1.20;;;25.50;55.50;;;;;;5032856;28;20223;-71
2022/05/07 10:31:21;;;;;;;4.72;1.40;;;25.60;56.60;;;;;;5032955;28;20187;-71
2022/05/07 10:33:51;;;;;;;2.28;1.20;;;26.00;56.20;;;;;;5065914;28;20206;-71
2022/05/07 10:36:19;;;;;;;2.97;1.35;;;25.40;55.80;;;;;;5033491;28;20187;-72
2022/05/07 10:38:46;;;;;;;2.78;1.35;;;25.60;55.10;;;;;;5032274;28;20299;-73
2022/05/07 10:41:16;;;;;;;2.38;1.30;;;25.80;56.00;;;;;;5033696;28;20538;-73
2022/05/07 10:43:48;;;;;;;2.72;1.40;;;26.30;53.70;;;;;;5015900;28;20261;-73
2022/05/07 10:46:19;;;;;;;2.75;1.40;;;25.80;53.60;;;;;;5033962;28;20249;-74
2022/05/07 10:49:04;;;;;;;2.88;1.50;;;26.30;54.30;;;;;;5032408;28;20227;-74
2022/05/07 10:51:51;;;;;;;3.30;1.50;;;26.70;54.00;;;;;;5032305;28;20253;-76
2022/05/07 10:54:26;;;;;;;3.45;1.50;;;27.00;52.80;;;;;;5032206;28;20210;-77
2022/05/07 10:56:57;;;;;;;2.08;1.17;;;27.20;51.60;;;;;;5032541;28;20199;-78
2022/05/07 10:59:27;;;;;;;2.03;1.20;;;27.00;51.00;;;;;;5032399;28;20203;-77
2022/05/07 11:02:06;;;;;;;1.50;1.30;;;26.60;51.90;;;;;;5036751;28;20668;-78
2022/05/07 11:04:44;;;;;;;1.90;1.30;;;26.60;53.00;;;;;;5035001;28;20238;-80
2022/05/07 11:07:19;;;;;;;2.45;1.10;;;26.80;53.80;;;;;;5034231;28;20231;-80
2022/05/07 11:09:51;;;;;;;3.50;1.20;;;27.50;52.50;;;;;;5019817;28;20268;-79
2022/05/07 11:12:18;;;;;;;1.90;1.40;;;28.20;51.30;;;;;;5038938;28;20257;-78
2022/05/07 11:14:45;;;;;;;2.60;1.20;;;28.60;50.80;;;;;;5036019;28;20652;-81
2022/05/07 11:17:12;;;;;;;2.10;1.17;;;28.40;49.70;;;;;;5044207;28;20191;-78
2022/05/07 11:19:40;;;;;;;3.17;1.50;;;28.30;50.10;;;;;;5032470;28;20581;-80
2022/05/07 11:22:13;;;;;;;2.83;1.40;;;28.70;50.70;;;;;;5015704;28;20219;-77
2022/05/07 11:24:41;;;;;;;2.88;1.40;;;29.30;50.10;;;;;;5033306;28;20195;-76
2022/05/07 11:27:11;;;;;;;1.83;1.13;;;29.90;48.80;;;;;;5015747;28;20604;-76
2022/05/07 11:29:39;;;;;;;2.97;1.60;;;30.00;47.80;;;;;;5031397;28;20665;-79
2022/05/07 11:32:12;;;;;;;1.67;1.30;;;29.60;48.10;;;;;;5015616;28;20238;-79
2022/05/07 11:34:41;;;;;;;2.40;1.10;;;29.10;48.10;;;;;;5032604;28;20571;-77
2022/05/07 11:37:12;;;;;;;4.35;1.50;;;29.10;48.80;;;;;;5031974;28;20214;-76
2022/05/07 11:39:58;;;;;;;2.10;1.42;;;29.40;47.70;;;;;;5031680;28;20231;-77
2022/05/07 11:42:43;;;;;;;2.88;1.20;;;28.80;48.00;;;;;;5031970;28;20207;-75
2022/05/07 11:45:27;;;;;;;2.42;1.23;;;28.30;47.90;;;;;;5036649;28;20187;-75
2022/05/07 11:48:04;;;;;;;2.47;1.23;;;28.80;50.40;;;;;;5017484;28;20314;-75
2022/05/07 11:50:55;;;;;;;3.75;1.30;;;28.90;48.00;;;;;;5036495;28;20203;-77
2022/05/07 11:53:28;;;;;;;6.32;1.30;;;28.70;48.20;;;;;;5031523;28;20558;-77
2022/05/07 11:56:07;;;;;;;2.47;1.30;;;29.00;48.00;;;;;;5031518;28;20203;-79
2022/05/07 11:58:40;;;;;;;4.90;1.30;;;27.60;49.10;;;;;;5031741;28;20207;-80
2022/05/07 12:01:22;;;;;;;1.40;1.10;;;26.50;51.50;;;;;;5033608;28;20637;-78
2022/05/07 12:03:50;;;;;;;3.67;1.40;;;26.60;51.60;;;;;;5034657;28;20195;-78
2022/05/07 12:06:30;;;;;;;2.55;1.17;;;26.10;52.00;;;;;;5031000;28;20761;-80
2022/05/07 12:08:58;;;;;;;2.22;1.60;;;26.70;52.50;;;;;;5030998;28;20219;-78
2022/05/07 12:11:26;;;;;;;2.22;1.30;;;27.70;51.60;;;;;;5032417;28;20644;-77
2022/05/07 12:13:54;;;;;;;1.98;1.40;;;28.10;50.40;;;;;;5030792;28;20198;-79
2022/05/07 12:19:07;;;;;;;4.10;1.70;;;27.50;48.70;;;;;;5032965;28;20218;-79
2022/05/07 12:29:53;;;;;;;2.03;1.30;;;28.50;51.70;;;;;;5017444;28;20226;-77
2022/05/07 12:32:24;;;;;;;5.10;1.40;;;29.20;49.30;;;;;;5017542;28;20226;-77
2022/05/07 12:34:51;;;;;;;1.80;1.27;;;29.00;48.90;;;;;;5019494;28;20200;-74
2022/05/07 12:37:20;;;;;;;1.90;1.35;;;29.20;48.70;;;;;;5036167;28;20253;-74
2022/05/07 12:39:47;;;;;;;2.08;1.23;;;28.80;49.40;;;;;;5017428;28;20681;-73
2022/05/07 12:42:15;;;;;;;1.60;1.30;;;29.40;47.90;;;;;;5034735;28;20203;-73
2022/05/07 12:44:44;;;;;;;2.85;1.20;;;29.50;48.70;;;;;;5017015;28;20207;-74
2022/05/07 12:47:11;;;;;;;3.40;1.17;;;30.10;48.60;;;;;;5000924;28;20710;-74
2022/05/07 12:49:39;;;;;;;1.48;1.13;;;30.50;46.20;;;;;;5033656;28;20223;-76
2022/05/07 12:52:07;;;;;;;2.90;1.20;;;31.00;46.40;;;;;;5034276;28;20198;-74
2022/05/07 12:54:37;;;;;;;13.98;2.25;;;30.60;45.30;;;;;;5034979;28;20199;-66
2022/05/07 12:57:06;;;;;;;2.45;1.10;;;30.90;45.30;;;;;;5017163;28;20195;-68
2022/05/07 12:59:33;;;;;;;2.25;1.25;;;30.60;49.20;;;;;;5033406;28;20219;-69
2022/05/07 13:02:06;;;;;;;1.95;1.17;;;29.90;49.50;;;;;;5028098;28;20205;-69
2022/05/07 13:04:34;;;;;;;4.07;1.27;;;29.70;51.20;;;;;;5034397;28;20223;-68
2022/05/07 13:07:02;;;;;;;2.95;1.48;;;29.60;51.60;;;;;;5033951;28;20232;-67
2022/05/07 13:09:29;;;;;;;3.67;1.40;;;28.90;51.80;;;;;;5034177;28;20594;-68
2022/05/07 13:12:17;;;;;;;3.40;1.50;;;28.80;52.00;;;;;;5035456;28;20582;-71
2022/05/07 13:14:51;;;;;;;1.85;1.20;;;28.50;51.60;;;;;;5034187;28;20218;-70
2022/05/07 13:17:18;;;;;;;2.70;1.25;;;28.70;55.70;;;;;;5034264;28;20191;-69